sensor_id;sensor_type;location;lat;lon;timestamp;temperature;humidity
40153;DHT22;26371;56.992;23.912;2023-05-10T00:22:10;8.60;94.10
40153;DHT22;26371;56.992;23.912;2023-05-10T00:24:38;8.50;94.60
40153;DHT22;26371;56.992;23.912;2023-05-10T00:27:06;8.40;94.60
40153;DHT22;26371;56.992;23.912;2023-05-10T00:29:35;8.40;94.70
40153;DHT22;26371;56.992;23.912;2023-05-10T00:32:03;8.40;94.80
40153;DHT22;26371;56.992;23.912;2023-05-10T00:34:32;8.30;94.90
40153;DHT22;26371;56.992;23.912;2023-05-10T00:37:01;8.30;95.00
40153;DHT22;26371;56.992;23.912;2023-05-10T00:39:30;8.20;95.00
40153;DHT22;26371;56.992;23.912;2023-05-10T00:41:59;8.20;95.10
40153;DHT22;26371;56.992;23.912;2023-05-10T00:44:27;8.20;95.10
40153;DHT22;26371;56.992;23.912;2023-05-10T00:46:56;8.10;95.10
40153;DHT22;26371;56.992;23.912;2023-05-10T00:49:25;8.10;95.30
40153;DHT22;26371;56.992;23.912;2023-05-10T00:51:53;8.10;95.30
40153;DHT22;26371;56.992;23.912;2023-05-10T00:54:21;8.10;95.60
40153;DHT22;26371;56.992;23.912;2023-05-10T00:56:52;8.10;95.80
40153;DHT22;26371;56.992;23.912;2023-05-10T00:59:20;8.00;96.20
40153;DHT22;26371;56.992;23.912;2023-05-10T01:01:49;8.00;96.20
40153;DHT22;26371;56.992;23.912;2023-05-10T01:04:18;8.00;96.70
40153;DHT22;26371;56.992;23.912;2023-05-10T01:06:52;8.00;96.70
40153;DHT22;26371;56.992;23.912;2023-05-10T01:09:21;8.00;97.00
40153;DHT22;26371;56.992;23.912;2023-05-10T01:11:49;8.00;97.10
40153;DHT22;26371;56.992;23.912;2023-05-10T01:14:19;8.00;97.30
40153;DHT22;26371;56.992;23.912;2023-05-10T01:16:48;7.90;97.50
40153;DHT22;26371;56.992;23.912;2023-05-10T01:19:18;7.90;97.60
40153;DHT22;26371;56.992;23.912;2023-05-10T01:21:48;7.90;97.70
40153;DHT22;26371;56.992;23.912;2023-05-10T01:27:12;7.80;98.10
40153;DHT22;26371;56.992;23.912;2023-05-10T01:29:52;7.80;98.10
40153;DHT22;26371;56.992;23.912;2023-05-10T01:32:44;7.80;98.10
40153;DHT22;26371;56.992;23.912;2023-05-10T01:35:16;7.80;98.10
40153;DHT22;26371;56.992;23.912;2023-05-10T01:37:47;7.80;98.00
40153;DHT22;26371;56.992;23.912;2023-05-10T01:40:17;7.80;97.80
40153;DHT22;26371;56.992;23.912;2023-05-10T01:42:50;7.80;97.70
40153;DHT22;26371;56.992;23.912;2023-05-10T01:45:21;7.80;97.60
40153;DHT22;26371;56.992;23.912;2023-05-10T01:48:02;7.80;97.40
40153;DHT22;26371;56.992;23.912;2023-05-10T01:50:41;7.80;97.50
40153;DHT22;26371;56.992;23.912;2023-05-10T01:53:11;7.80;97.60
40153;DHT22;26371;56.992;23.912;2023-05-10T01:55:42;7.80;97.70
40153;DHT22;26371;56.992;23.912;2023-05-10T01:58:13;7.80;97.80
40153;DHT22;26371;56.992;23.912;2023-05-10T02:00:42;7.70;98.00
40153;DHT22;26371;56.992;23.912;2023-05-10T02:03:13;7.70;97.80
40153;DHT22;26371;56.992;23.912;2023-05-10T02:05:43;7.70;97.90
40153;DHT22;26371;56.992;23.912;2023-05-10T02:08:12;7.60;97.80
40153;DHT22;26371;56.992;23.912;2023-05-10T02:10:41;7.60;97.90
40153;DHT22;26371;56.992;23.912;2023-05-10T02:13:10;7.60;98.00
40153;DHT22;26371;56.992;23.912;2023-05-10T02:15:39;7.60;98.00
40153;DHT22;26371;56.992;23.912;2023-05-10T02:18:08;7.50;97.90
40153;DHT22;26371;56.992;23.912;2023-05-10T02:20:38;7.50;97.90
40153;DHT22;26371;56.992;23.912;2023-05-10T02:23:07;7.50;97.90
40153;DHT22;26371;56.992;23.912;2023-05-10T02:25:36;7.50;97.90
40153;DHT22;26371;56.992;23.912;2023-05-10T02:28:06;7.50;97.90
40153;DHT22;26371;56.992;23.912;2023-05-10T02:30:35;7.50;98.00
40153;DHT22;26371;56.992;23.912;2023-05-10T02:33:04;7.50;97.90
40153;DHT22;26371;56.992;23.912;2023-05-10T02:35:33;7.50;97.80
40153;DHT22;26371;56.992;23.912;2023-05-10T02:38:03;7.50;98.00
40153;DHT22;26371;56.992;23.912;2023-05-10T02:40:32;7.50;98.00
40153;DHT22;26371;56.992;23.912;2023-05-10T02:43:01;7.40;98.10
40153;DHT22;26371;56.992;23.912;2023-05-10T02:45:31;7.40;98.20
40153;DHT22;26371;56.992;23.912;2023-05-10T02:48:00;7.40;98.20
40153;DHT22;26371;56.992;23.912;2023-05-10T02:50:29;7.40;98.20
40153;DHT22;26371;56.992;23.912;2023-05-10T02:52:59;7.40;98.20
40153;DHT22;26371;56.992;23.912;2023-05-10T02:55:32;7.50;98.30
40153;DHT22;26371;56.992;23.912;2023-05-10T02:58:01;7.50;98.30
40153;DHT22;26371;56.992;23.912;2023-05-10T03:00:29;7.50;98.20
40153;DHT22;26371;56.992;23.912;2023-05-10T03:02:58;7.50;98.30
40153;DHT22;26371;56.992;23.912;2023-05-10T03:05:27;7.50;98.30
40153;DHT22;26371;56.992;23.912;2023-05-10T03:07:59;7.50;98.50
40153;DHT22;26371;56.992;23.912;2023-05-10T03:10:32;7.60;98.70
40153;DHT22;26371;56.992;23.912;2023-05-10T03:13:05;7.60;98.70
40153;DHT22;26371;56.992;23.912;2023-05-10T03:15:37;7.60;98.80
40153;DHT22;26371;56.992;23.912;2023-05-10T03:18:06;7.60;99.00
40153;DHT22;26371;56.992;23.912;2023-05-10T03:20:36;7.70;99.20
40153;DHT22;26371;56.992;23.912;2023-05-10T03:23:04;7.70;99.90
40153;DHT22;26371;56.992;23.912;2023-05-10T03:25:37;7.70;99.90
40153;DHT22;26371;56.992;23.912;2023-05-10T03:28:07;7.80;99.90
40153;DHT22;26371;56.992;23.912;2023-05-10T03:30:36;7.80;99.90
40153;DHT22;26371;56.992;23.912;2023-05-10T03:33:06;7.80;99.90
40153;DHT22;26371;56.992;23.912;2023-05-10T03:35:39;7.90;99.70
40153;DHT22;26371;56.992;23.912;2023-05-10T03:38:07;8.00;99.40
40153;DHT22;26371;56.992;23.912;2023-05-10T03:40:37;8.10;98.90
40153;DHT22;26371;56.992;23.912;2023-05-10T03:43:05;8.20;98.60
40153;DHT22;26371;56.992;23.912;2023-05-10T03:45:33;8.30;98.20
40153;DHT22;26371;56.992;23.912;2023-05-10T03:48:02;8.30;97.90
40153;DHT22;26371;56.992;23.912;2023-05-10T03:50:31;8.50;97.70
40153;DHT22;26371;56.992;23.912;2023-05-10T03:52:59;8.50;97.20
40153;DHT22;26371;56.992;23.912;2023-05-10T03:55:29;8.60;96.90
40153;DHT22;26371;56.992;23.912;2023-05-10T03:58:02;8.70;96.60
40153;DHT22;26371;56.992;23.912;2023-05-10T04:00:32;8.80;96.50
40153;DHT22;26371;56.992;23.912;2023-05-10T04:03:02;8.90;96.30
40153;DHT22;26371;56.992;23.912;2023-05-10T04:05:30;8.90;95.90
40153;DHT22;26371;56.992;23.912;2023-05-10T04:07:58;8.90;95.60
40153;DHT22;26371;56.992;23.912;2023-05-10T04:10:27;9.00;95.80
40153;DHT22;26371;56.992;23.912;2023-05-10T04:12:55;9.00;95.40
40153;DHT22;26371;56.992;23.912;2023-05-10T04:15:25;9.10;95.00
40153;DHT22;26371;56.992;23.912;2023-05-10T04:17:53;9.10;94.90
40153;DHT22;26371;56.992;23.912;2023-05-10T04:20:21;9.10;94.70
40153;DHT22;26371;56.992;23.912;2023-05-10T04:22:50;9.20;94.80
40153;DHT22;26371;56.992;23.912;2023-05-10T04:25:18;9.20;94.70
40153;DHT22;26371;56.992;23.912;2023-05-10T04:27:47;9.30;94.50
40153;DHT22;26371;56.992;23.912;2023-05-10T04:30:15;9.30;94.50
40153;DHT22;26371;56.992;23.912;2023-05-10T04:32:45;9.40;94.30
40153;DHT22;26371;56.992;23.912;2023-05-10T04:35:14;9.50;94.20
40153;DHT22;26371;56.992;23.912;2023-05-10T04:37:42;9.50;94.20
40153;DHT22;26371;56.992;23.912;2023-05-10T04:40:11;9.60;94.40
40153;DHT22;26371;56.992;23.912;2023-05-10T04:42:40;9.60;93.90
40153;DHT22;26371;56.992;23.912;2023-05-10T04:45:09;9.70;93.80
40153;DHT22;26371;56.992;23.912;2023-05-10T04:47:37;9.70;93.80
40153;DHT22;26371;56.992;23.912;2023-05-10T04:50:08;9.80;93.60
40153;DHT22;26371;56.992;23.912;2023-05-10T04:52:36;9.80;93.70
40153;DHT22;26371;56.992;23.912;2023-05-10T04:55:04;9.80;93.60
40153;DHT22;26371;56.992;23.912;2023-05-10T04:57:34;9.90;93.70
40153;DHT22;26371;56.992;23.912;2023-05-10T05:00:03;9.90;93.60
40153;DHT22;26371;56.992;23.912;2023-05-10T05:02:32;10.00;93.60
40153;DHT22;26371;56.992;23.912;2023-05-10T05:05:00;10.00;94.30
40153;DHT22;26371;56.992;23.912;2023-05-10T05:07:30;10.10;93.90
40153;DHT22;26371;56.992;23.912;2023-05-10T05:09:59;10.20;93.80
40153;DHT22;26371;56.992;23.912;2023-05-10T05:12:28;10.40;99.90
40153;DHT22;26371;56.992;23.912;2023-05-10T05:14:56;10.50;98.10
40153;DHT22;26371;56.992;23.912;2023-05-10T05:17:24;10.50;93.60
40153;DHT22;26371;56.992;23.912;2023-05-10T05:19:53;10.60;94.00
40153;DHT22;26371;56.992;23.912;2023-05-10T05:22:21;10.70;93.70
40153;DHT22;26371;56.992;23.912;2023-05-10T05:24:55;10.80;93.60
40153;DHT22;26371;56.992;23.912;2023-05-10T05:27:25;10.90;93.50
40153;DHT22;26371;56.992;23.912;2023-05-10T05:29:54;11.00;93.30
40153;DHT22;26371;56.992;23.912;2023-05-10T05:32:23;11.20;93.50
40153;DHT22;26371;56.992;23.912;2023-05-10T05:34:51;11.30;93.60
40153;DHT22;26371;56.992;23.912;2023-05-10T05:37:20;11.50;92.80
40153;DHT22;26371;56.992;23.912;2023-05-10T05:39:49;11.70;92.60
40153;DHT22;26371;56.992;23.912;2023-05-10T05:42:19;11.90;91.70
40153;DHT22;26371;56.992;23.912;2023-05-10T05:44:50;12.40;99.90
40153;DHT22;26371;56.992;23.912;2023-05-10T05:49:49;12.50;99.90
40153;DHT22;26371;56.992;23.912;2023-05-10T05:57:20;13.00;99.90
40153;DHT22;26371;56.992;23.912;2023-05-10T05:59:49;12.90;90.60
40153;DHT22;26371;56.992;23.912;2023-05-10T06:02:17;13.00;91.00
40153;DHT22;26371;56.992;23.912;2023-05-10T06:04:45;13.10;90.60
40153;DHT22;26371;56.992;23.912;2023-05-10T06:07:14;13.20;90.20
40153;DHT22;26371;56.992;23.912;2023-05-10T06:09:42;13.40;89.10
40153;DHT22;26371;56.992;23.912;2023-05-10T06:12:10;13.50;85.70
40153;DHT22;26371;56.992;23.912;2023-05-10T06:14:41;13.70;84.80
40153;DHT22;26371;56.992;23.912;2023-05-10T06:17:09;13.80;83.50
40153;DHT22;26371;56.992;23.912;2023-05-10T06:19:37;14.00;83.00
40153;DHT22;26371;56.992;23.912;2023-05-10T06:22:06;14.10;83.00
40153;DHT22;26371;56.992;23.912;2023-05-10T06:24:34;14.20;83.90
40153;DHT22;26371;56.992;23.912;2023-05-10T06:27:02;14.30;81.70
40153;DHT22;26371;56.992;23.912;2023-05-10T06:29:31;14.40;82.00
40153;DHT22;26371;56.992;23.912;2023-05-10T06:32:01;14.50;82.40
40153;DHT22;26371;56.992;23.912;2023-05-10T06:34:30;14.50;80.70
40153;DHT22;26371;56.992;23.912;2023-05-10T06:36:58;14.70;79.50
40153;DHT22;26371;56.992;23.912;2023-05-10T06:39:26;14.80;79.20
40153;DHT22;26371;56.992;23.912;2023-05-10T06:41:55;14.90;79.60
40153;DHT22;26371;56.992;23.912;2023-05-10T06:44:30;15.00;76.70
40153;DHT22;26371;56.992;23.912;2023-05-10T06:46:59;15.10;77.10
40153;DHT22;26371;56.992;23.912;2023-05-10T06:49:28;15.20;77.10
40153;DHT22;26371;56.992;23.912;2023-05-10T06:51:57;15.20;75.20
40153;DHT22;26371;56.992;23.912;2023-05-10T06:54:25;15.30;77.10
40153;DHT22;26371;56.992;23.912;2023-05-10T06:56:53;15.40;76.40
40153;DHT22;26371;56.992;23.912;2023-05-10T06:59:22;15.50;72.30
40153;DHT22;26371;56.992;23.912;2023-05-10T07:01:51;15.50;75.00
40153;DHT22;26371;56.992;23.912;2023-05-10T07:04:20;15.60;74.90
40153;DHT22;26371;56.992;23.912;2023-05-10T07:06:50;15.70;76.70
40153;DHT22;26371;56.992;23.912;2023-05-10T07:09:19;15.80;72.80
40153;DHT22;26371;56.992;23.912;2023-05-10T07:11:47;15.80;72.70
40153;DHT22;26371;56.992;23.912;2023-05-10T07:14:15;15.90;73.10
40153;DHT22;26371;56.992;23.912;2023-05-10T07:16:44;16.00;71.10
40153;DHT22;26371;56.992;23.912;2023-05-10T07:19:12;16.10;71.50
40153;DHT22;26371;56.992;23.912;2023-05-10T07:21:40;16.10;71.00
40153;DHT22;26371;56.992;23.912;2023-05-10T07:24:11;16.20;72.90
40153;DHT22;26371;56.992;23.912;2023-05-10T07:26:40;16.20;73.60
40153;DHT22;26371;56.992;23.912;2023-05-10T07:29:08;16.40;72.50
40153;DHT22;26371;56.992;23.912;2023-05-10T07:31:36;16.40;71.90
40153;DHT22;26371;56.992;23.912;2023-05-10T07:34:05;16.50;73.70
40153;DHT22;26371;56.992;23.912;2023-05-10T07:39:02;16.60;73.60
40153;DHT22;26371;56.992;23.912;2023-05-10T07:41:31;16.70;71.90
40153;DHT22;26371;56.992;23.912;2023-05-10T07:53:58;17.00;70.00
40153;DHT22;26371;56.992;23.912;2023-05-10T07:56:27;17.00;71.50
40153;DHT22;26371;56.992;23.912;2023-05-10T07:58:58;17.00;69.60
40153;DHT22;26371;56.992;23.912;2023-05-10T08:01:29;17.00;68.20
40153;DHT22;26371;56.992;23.912;2023-05-10T08:03:58;17.00;68.50
40153;DHT22;26371;56.992;23.912;2023-05-10T08:06:26;17.10;67.20
40153;DHT22;26371;56.992;23.912;2023-05-10T08:08:57;17.00;65.20
40153;DHT22;26371;56.992;23.912;2023-05-10T08:11:25;16.90;64.90
40153;DHT22;26371;56.992;23.912;2023-05-10T08:13:54;16.90;67.40
40153;DHT22;26371;56.992;23.912;2023-05-10T08:16:24;17.00;67.40
40153;DHT22;26371;56.992;23.912;2023-05-10T08:18:53;17.10;68.60
40153;DHT22;26371;56.992;23.912;2023-05-10T08:21:23;17.30;67.40
40153;DHT22;26371;56.992;23.912;2023-05-10T08:23:51;17.40;68.20
40153;DHT22;26371;56.992;23.912;2023-05-10T08:26:20;17.50;68.60
40153;DHT22;26371;56.992;23.912;2023-05-10T08:28:49;17.50;68.30
40153;DHT22;26371;56.992;23.912;2023-05-10T08:31:17;17.50;69.10
40153;DHT22;26371;56.992;23.912;2023-05-10T08:33:47;17.50;69.00
40153;DHT22;26371;56.992;23.912;2023-05-10T08:36:16;17.60;67.70
40153;DHT22;26371;56.992;23.912;2023-05-10T08:38:49;17.60;69.30
40153;DHT22;26371;56.992;23.912;2023-05-10T08:41:18;17.70;70.00
40153;DHT22;26371;56.992;23.912;2023-05-10T08:43:47;17.70;68.60
40153;DHT22;26371;56.992;23.912;2023-05-10T08:46:17;17.90;69.40
40153;DHT22;26371;56.992;23.912;2023-05-10T08:48:46;18.00;68.20
40153;DHT22;26371;56.992;23.912;2023-05-10T08:51:17;18.00;69.40
40153;DHT22;26371;56.992;23.912;2023-05-10T08:53:46;18.10;69.00
40153;DHT22;26371;56.992;23.912;2023-05-10T08:56:15;18.10;68.00
40153;DHT22;26371;56.992;23.912;2023-05-10T08:58:44;18.10;68.60
40153;DHT22;26371;56.992;23.912;2023-05-10T09:01:13;18.10;70.20
40153;DHT22;26371;56.992;23.912;2023-05-10T09:03:41;18.10;66.70
40153;DHT22;26371;56.992;23.912;2023-05-10T09:06:11;18.10;68.90
40153;DHT22;26371;56.992;23.912;2023-05-10T09:08:42;18.20;67.40
40153;DHT22;26371;56.992;23.912;2023-05-10T09:11:11;18.10;67.20
40153;DHT22;26371;56.992;23.912;2023-05-10T09:13:39;18.20;66.70
40153;DHT22;26371;56.992;23.912;2023-05-10T09:16:08;18.30;67.80
40153;DHT22;26371;56.992;23.912;2023-05-10T09:18:48;18.40;67.60
40153;DHT22;26371;56.992;23.912;2023-05-10T09:21:17;18.40;66.50
40153;DHT22;26371;56.992;23.912;2023-05-10T09:23:48;18.40;66.30
40153;DHT22;26371;56.992;23.912;2023-05-10T09:26:26;18.40;66.70
40153;DHT22;26371;56.992;23.912;2023-05-10T09:28:55;18.50;67.70
40153;DHT22;26371;56.992;23.912;2023-05-10T09:31:23;18.70;69.00
40153;DHT22;26371;56.992;23.912;2023-05-10T09:33:52;18.70;67.00
40153;DHT22;26371;56.992;23.912;2023-05-10T09:36:23;18.70;68.00
40153;DHT22;26371;56.992;23.912;2023-05-10T09:38:53;18.70;66.10
40153;DHT22;26371;56.992;23.912;2023-05-10T09:41:22;18.70;66.70
40153;DHT22;26371;56.992;23.912;2023-05-10T09:43:50;18.70;65.00
40153;DHT22;26371;56.992;23.912;2023-05-10T09:46:23;18.70;65.90
40153;DHT22;26371;56.992;23.912;2023-05-10T09:51:23;19.30;92.30
40153;DHT22;26371;56.992;23.912;2023-05-10T09:56:48;18.90;92.80
40153;DHT22;26371;56.992;23.912;2023-05-10T09:59:16;18.80;92.00
40153;DHT22;26371;56.992;23.912;2023-05-10T10:01:49;18.60;90.30
40153;DHT22;26371;56.992;23.912;2023-05-10T10:04:17;18.60;89.40
40153;DHT22;26371;56.992;23.912;2023-05-10T10:06:46;18.60;89.20
40153;DHT22;26371;56.992;23.912;2023-05-10T10:09:14;18.60;89.40
40153;DHT22;26371;56.992;23.912;2023-05-10T10:11:44;18.70;88.50
40153;DHT22;26371;56.992;23.912;2023-05-10T10:14:14;18.80;88.40
40153;DHT22;26371;56.992;23.912;2023-05-10T10:16:42;18.70;88.10
40153;DHT22;26371;56.992;23.912;2023-05-10T10:19:32;18.90;87.60
40153;DHT22;26371;56.992;23.912;2023-05-10T10:22:01;18.80;86.80
40153;DHT22;26371;56.992;23.912;2023-05-10T10:24:29;18.60;84.90
40153;DHT22;26371;56.992;23.912;2023-05-10T10:27:09;18.60;85.00
40153;DHT22;26371;56.992;23.912;2023-05-10T10:29:47;18.60;84.70
40153;DHT22;26371;56.992;23.912;2023-05-10T10:32:20;18.80;84.70
40153;DHT22;26371;56.992;23.912;2023-05-10T10:39:50;19.40;91.20
40153;DHT22;26371;56.992;23.912;2023-05-10T10:45:12;19.30;63.10
40153;DHT22;26371;56.992;23.912;2023-05-10T10:47:41;19.10;64.20
40153;DHT22;26371;56.992;23.912;2023-05-10T10:50:10;18.90;62.40
40153;DHT22;26371;56.992;23.912;2023-05-10T10:52:40;18.90;62.40
40153;DHT22;26371;56.992;23.912;2023-05-10T10:55:09;18.70;63.50
40153;DHT22;26371;56.992;23.912;2023-05-10T10:57:45;18.70;63.40
40153;DHT22;26371;56.992;23.912;2023-05-10T11:00:25;18.80;64.00
40153;DHT22;26371;56.992;23.912;2023-05-10T11:02:54;19.00;63.00
40153;DHT22;26371;56.992;23.912;2023-05-10T11:08:14;18.90;63.80
40153;DHT22;26371;56.992;23.912;2023-05-10T11:10:50;19.00;64.10
40153;DHT22;26371;56.992;23.912;2023-05-10T11:13:26;19.00;65.30
40153;DHT22;26371;56.992;23.912;2023-05-10T11:15:56;19.00;65.00
40153;DHT22;26371;56.992;23.912;2023-05-10T11:18:26;19.10;65.20
40153;DHT22;26371;56.992;23.912;2023-05-10T11:20:56;19.10;65.00
40153;DHT22;26371;56.992;23.912;2023-05-10T11:23:29;19.00;64.10
40153;DHT22;26371;56.992;23.912;2023-05-10T11:25:58;18.90;63.70
40153;DHT22;26371;56.992;23.912;2023-05-10T11:28:26;18.90;64.50
40153;DHT22;26371;56.992;23.912;2023-05-10T11:30:56;19.00;64.60
40153;DHT22;26371;56.992;23.912;2023-05-10T11:33:25;19.00;62.90
40153;DHT22;26371;56.992;23.912;2023-05-10T11:35:53;19.10;63.70
40153;DHT22;26371;56.992;23.912;2023-05-10T11:38:22;19.00;63.20
40153;DHT22;26371;56.992;23.912;2023-05-10T11:40:51;19.10;65.10
40153;DHT22;26371;56.992;23.912;2023-05-10T11:43:20;19.20;63.90
40153;DHT22;26371;56.992;23.912;2023-05-10T11:45:52;19.20;63.30
40153;DHT22;26371;56.992;23.912;2023-05-10T11:48:22;19.30;63.10
40153;DHT22;26371;56.992;23.912;2023-05-10T11:50:51;19.30;63.90
40153;DHT22;26371;56.992;23.912;2023-05-10T11:53:19;19.50;64.00
40153;DHT22;26371;56.992;23.912;2023-05-10T12:10:46;19.90;62.40
40153;DHT22;26371;56.992;23.912;2023-05-10T12:13:25;20.10;63.10
40153;DHT22;26371;56.992;23.912;2023-05-10T12:15:56;20.20;60.80
40153;DHT22;26371;56.992;23.912;2023-05-10T12:18:25;20.30;61.10
40153;DHT22;26371;56.992;23.912;2023-05-10T12:20:54;20.40;62.00
40153;DHT22;26371;56.992;23.912;2023-05-10T12:23:31;20.50;63.20
40153;DHT22;26371;56.992;23.912;2023-05-10T12:26:03;20.20;61.00
40153;DHT22;26371;56.992;23.912;2023-05-10T12:28:32;19.90;61.70
40153;DHT22;26371;56.992;23.912;2023-05-10T12:31:01;19.80;62.00
40153;DHT22;26371;56.992;23.912;2023-05-10T12:33:35;19.80;62.50
40153;DHT22;26371;56.992;23.912;2023-05-10T12:36:04;19.50;63.40
40153;DHT22;26371;56.992;23.912;2023-05-10T12:38:33;19.50;64.40
40153;DHT22;26371;56.992;23.912;2023-05-10T12:41:04;19.50;62.20
40153;DHT22;26371;56.992;23.912;2023-05-10T12:43:34;19.40;59.70
40153;DHT22;26371;56.992;23.912;2023-05-10T12:46:06;19.20;62.80
40153;DHT22;26371;56.992;23.912;2023-05-10T12:48:35;19.20;63.30
40153;DHT22;26371;56.992;23.912;2023-05-10T12:51:03;19.30;63.00
40153;DHT22;26371;56.992;23.912;2023-05-10T12:53:32;19.20;64.20
40153;DHT22;26371;56.992;23.912;2023-05-10T12:56:00;19.30;63.90
40153;DHT22;26371;56.992;23.912;2023-05-10T12:58:30;19.50;64.20
40153;DHT22;26371;56.992;23.912;2023-05-10T13:01:02;19.70;64.10
40153;DHT22;26371;56.992;23.912;2023-05-10T13:03:31;19.80;63.80
40153;DHT22;26371;56.992;23.912;2023-05-10T13:06:00;19.60;63.50
40153;DHT22;26371;56.992;23.912;2023-05-10T13:08:29;19.40;66.10
40153;DHT22;26371;56.992;23.912;2023-05-10T13:11:00;19.40;63.90
40153;DHT22;26371;56.992;23.912;2023-05-10T13:13:30;19.30;64.60
40153;DHT22;26371;56.992;23.912;2023-05-10T13:15:59;19.30;64.00
40153;DHT22;26371;56.992;23.912;2023-05-10T13:18:27;19.30;64.50
40153;DHT22;26371;56.992;23.912;2023-05-10T13:20:56;19.30;64.20
40153;DHT22;26371;56.992;23.912;2023-05-10T13:23:24;19.30;63.40
40153;DHT22;26371;56.992;23.912;2023-05-10T13:25:52;19.30;62.20
40153;DHT22;26371;56.992;23.912;2023-05-10T13:28:24;19.10;61.80
40153;DHT22;26371;56.992;23.912;2023-05-10T13:30:54;19.00;62.30
40153;DHT22;26371;56.992;23.912;2023-05-10T13:33:23;19.10;62.80
40153;DHT22;26371;56.992;23.912;2023-05-10T13:35:51;19.10;63.70
40153;DHT22;26371;56.992;23.912;2023-05-10T13:38:21;19.10;63.80
40153;DHT22;26371;56.992;23.912;2023-05-10T13:40:52;18.80;64.30
40153;DHT22;26371;56.992;23.912;2023-05-10T13:43:20;18.80;64.80
40153;DHT22;26371;56.992;23.912;2023-05-10T13:45:49;18.70;71.40
40153;DHT22;26371;56.992;23.912;2023-05-10T13:48:19;18.70;90.60
40153;DHT22;26371;56.992;23.912;2023-05-10T13:50:47;18.70;92.80
40153;DHT22;26371;56.992;23.912;2023-05-10T13:53:15;18.80;91.80
40153;DHT22;26371;56.992;23.912;2023-05-10T13:55:44;18.80;91.50
40153;DHT22;26371;56.992;23.912;2023-05-10T13:58:12;19.00;91.50
40153;DHT22;26371;56.992;23.912;2023-05-10T14:18:12;19.00;92.20
40153;DHT22;26371;56.992;23.912;2023-05-10T14:23:12;19.70;91.40
40153;DHT22;26371;56.992;23.912;2023-05-10T14:25:41;19.50;91.30
40153;DHT22;26371;56.992;23.912;2023-05-10T14:28:09;19.60;91.60
40153;DHT22;26371;56.992;23.912;2023-05-10T14:33:08;20.40;93.40
40153;DHT22;26371;56.992;23.912;2023-05-10T14:35:38;20.00;89.60
40153;DHT22;26371;56.992;23.912;2023-05-10T14:38:06;20.10;63.00
40153;DHT22;26371;56.992;23.912;2023-05-10T14:40:35;20.10;67.50
40153;DHT22;26371;56.992;23.912;2023-05-10T14:43:03;20.10;58.50
40153;DHT22;26371;56.992;23.912;2023-05-10T14:45:32;20.00;58.70
40153;DHT22;26371;56.992;23.912;2023-05-10T14:48:01;20.00;59.50
40153;DHT22;26371;56.992;23.912;2023-05-10T14:50:31;19.90;59.70
40153;DHT22;26371;56.992;23.912;2023-05-10T14:53:04;19.70;59.90
40153;DHT22;26371;56.992;23.912;2023-05-10T14:58:03;19.50;64.20
40153;DHT22;26371;56.992;23.912;2023-05-10T15:00:32;19.50;66.30
40153;DHT22;26371;56.992;23.912;2023-05-10T15:03:00;19.60;65.90
40153;DHT22;26371;56.992;23.912;2023-05-10T15:05:31;19.30;59.60
40153;DHT22;26371;56.992;23.912;2023-05-10T15:08:00;19.30;60.00
40153;DHT22;26371;56.992;23.912;2023-05-10T15:10:30;19.30;60.50
40153;DHT22;26371;56.992;23.912;2023-05-10T15:13:00;19.30;59.50
40153;DHT22;26371;56.992;23.912;2023-05-10T15:15:28;19.30;60.80
40153;DHT22;26371;56.992;23.912;2023-05-10T15:17:57;19.40;60.80
40153;DHT22;26371;56.992;23.912;2023-05-10T15:20:26;19.40;61.30
40153;DHT22;26371;56.992;23.912;2023-05-10T15:22:54;19.30;60.40
40153;DHT22;26371;56.992;23.912;2023-05-10T15:25:23;19.30;60.70
40153;DHT22;26371;56.992;23.912;2023-05-10T15:27:53;19.40;60.80
40153;DHT22;26371;56.992;23.912;2023-05-10T15:30:21;19.40;61.00
40153;DHT22;26371;56.992;23.912;2023-05-10T15:32:50;19.30;60.40
40153;DHT22;26371;56.992;23.912;2023-05-10T15:35:18;19.40;60.50
40153;DHT22;26371;56.992;23.912;2023-05-10T15:37:47;19.50;60.50
40153;DHT22;26371;56.992;23.912;2023-05-10T15:40:15;19.50;59.80
40153;DHT22;26371;56.992;23.912;2023-05-10T15:42:43;19.60;59.60
40153;DHT22;26371;56.992;23.912;2023-05-10T15:45:13;19.70;59.50
40153;DHT22;26371;56.992;23.912;2023-05-10T15:47:42;19.50;58.70
40153;DHT22;26371;56.992;23.912;2023-05-10T15:55:11;19.10;79.00
40153;DHT22;26371;56.992;23.912;2023-05-10T15:57:41;19.10;80.90
40153;DHT22;26371;56.992;23.912;2023-05-10T16:00:10;19.10;80.00
40153;DHT22;26371;56.992;23.912;2023-05-10T16:02:40;19.00;78.60
40153;DHT22;26371;56.992;23.912;2023-05-10T16:05:08;18.90;76.40
40153;DHT22;26371;56.992;23.912;2023-05-10T16:07:37;18.80;78.50
40153;DHT22;26371;56.992;23.912;2023-05-10T17:14:38;17.20;68.10
40153;DHT22;26371;56.992;23.912;2023-05-10T17:17:07;17.40;67.30
40153;DHT22;26371;56.992;23.912;2023-05-10T17:19:35;17.40;66.70
40153;DHT22;26371;56.992;23.912;2023-05-10T17:22:04;17.40;65.60
40153;DHT22;26371;56.992;23.912;2023-05-10T17:24:32;17.40;66.70
40153;DHT22;26371;56.992;23.912;2023-05-10T17:27:01;17.30;67.60
40153;DHT22;26371;56.992;23.912;2023-05-10T17:29:30;17.30;68.50
40153;DHT22;26371;56.992;23.912;2023-05-10T17:32:00;17.20;69.20
40153;DHT22;26371;56.992;23.912;2023-05-10T17:34:29;17.10;67.30
40153;DHT22;26371;56.992;23.912;2023-05-10T17:36:58;17.10;68.20
40153;DHT22;26371;56.992;23.912;2023-05-10T17:39:27;17.00;67.70
40153;DHT22;26371;56.992;23.912;2023-05-10T17:41:55;17.00;67.00
40153;DHT22;26371;56.992;23.912;2023-05-10T17:44:23;16.80;66.30
40153;DHT22;26371;56.992;23.912;2023-05-10T17:46:52;16.70;67.20
40153;DHT22;26371;56.992;23.912;2023-05-10T17:49:22;16.70;67.50
40153;DHT22;26371;56.992;23.912;2023-05-10T17:51:51;16.50;71.00
40153;DHT22;26371;56.992;23.912;2023-05-10T17:54:19;16.30;73.20
40153;DHT22;26371;56.992;23.912;2023-05-10T17:56:50;15.90;90.60
40153;DHT22;26371;56.992;23.912;2023-05-10T17:59:18;16.00;91.40
40153;DHT22;26371;56.992;23.912;2023-05-10T18:04:17;15.70;89.40
40153;DHT22;26371;56.992;23.912;2023-05-10T18:06:47;15.70;89.70
40153;DHT22;26371;56.992;23.912;2023-05-10T18:09:15;15.50;72.40
40153;DHT22;26371;56.992;23.912;2023-05-10T18:14:15;15.50;92.00
40153;DHT22;26371;56.992;23.912;2023-05-10T18:17:05;15.30;97.50
40153;DHT22;26371;56.992;23.912;2023-05-10T18:19:34;15.30;87.50
40153;DHT22;26371;56.992;23.912;2023-05-10T18:27:07;15.10;87.60
40153;DHT22;26371;56.992;23.912;2023-05-10T18:34:33;14.80;72.30
40153;DHT22;26371;56.992;23.912;2023-05-10T18:37:02;14.70;72.00
40153;DHT22;26371;56.992;23.912;2023-05-10T18:47:01;14.50;70.50